Time;durP1;ratioP1;P1;durP2;ratioP2;P2;SDS_P1;SDS_P2;PMS_P1;PMS_P2;Temp;Humidity;BMP_temperature;BMP_pressure;BME280_temperature;BME280_humidity;BME280_pressure;Samples;Min_cycle;Max_cycle;Signal;HPM_P1;HPM_P2
2022/09/27 00:01:23;;;;;;;10.70;8.20;;;;;;;15.82;65.63;99512.16;1786118;80;21477;-74
2022/09/27 00:03:59;;;;;;;10.17;8.40;;;;;;;15.82;65.63;99512.16;1786437;80;21413;-74
2022/09/27 00:06:28;;;;;;;11.10;8.65;;;;;;;15.84;65.78;99505.91;1755753;80;21354;-73
2022/09/27 00:08:56;;;;;;;10.20;8.37;;;;;;;15.83;65.73;99506.47;1755483;81;20966;-74
2022/09/27 00:11:29;;;;;;;9.10;8.20;;;;;;;15.79;65.95;99487.21;1755651;80;21461;-73
2022/09/27 00:13:57;;;;;;;9.70;8.67;;;;;;;15.79;65.95;99487.21;1755565;81;21473;-73
2022/09/27 00:16:29;;;;;;;10.33;8.40;;;;;;;15.73;65.77;99485.78;1755097;80;21388;-72
2022/09/27 00:19:03;;;;;;;10.98;9.25;;;;;;;15.73;65.77;99485.78;1777466;80;21409;-75
2022/09/27 00:21:30;;;;;;;12.83;9.33;;;;;;;15.70;65.99;99475.91;1778597;80;20975;-73
2022/09/27 00:23:58;;;;;;;9.90;8.57;;;;;;;15.71;65.93;99472.66;1778992;80;21372;-73
2022/09/27 00:26:26;;;;;;;9.87;8.87;;;;;;;15.71;65.93;99472.66;1782616;80;21424;-73
2022/09/27 00:28:53;;;;;;;10.83;8.80;;;;;;;15.66;65.97;99474.96;1781418;80;21323;-73
2022/09/27 00:31:24;;;;;;;11.37;9.53;;;;;;;15.66;65.97;99474.96;1781828;79;21556;-74
2022/09/27 00:33:52;;;;;;;13.80;9.00;;;;;;;15.64;66.07;99465.58;1736374;82;21943;-73
2022/09/27 00:36:19;;;;;;;10.73;8.97;;;;;;;15.64;66.12;99459.64;1758602;80;21365;-73
2022/09/27 00:38:47;;;;;;;11.77;9.40;;;;;;;15.63;66.15;99456.72;1761445;79;21407;-75
2022/09/27 00:41:16;;;;;;;10.30;9.20;;;;;;;15.61;66.22;99447.38;1737068;82;21495;-74
2022/09/27 00:43:52;;;;;;;9.97;8.90;;;;;;;15.57;66.34;99448.56;1755054;81;21372;-73
2022/09/27 00:46:43;;;;;;;10.63;9.00;;;;;;;15.60;66.46;99457.36;1766324;79;21370;-73
2022/09/27 00:49:28;;;;;;;10.27;9.00;;;;;;;15.63;66.49;99452.69;1786158;80;21288;-74
2022/09/27 00:52:06;;;;;;;11.30;9.47;;;;;;;15.67;66.45;99438.06;1763365;79;21953;-73
2022/09/27 00:54:35;;;;;;;9.87;8.87;;;;;;;15.69;66.44;99439.87;1780077;80;21396;-72
2022/09/27 00:57:03;;;;;;;12.33;9.60;;;;;;;15.66;66.83;99422.97;1764092;81;21365;-72
2022/09/27 00:59:34;;;;;;;9.67;8.67;;;;;;;15.66;66.83;99422.97;1764057;79;21485;-72
2022/09/27 01:02:04;;;;;;;10.90;9.07;;;;;;;15.67;66.63;99419.22;1764313;79;21520;-72
2022/09/27 01:04:31;;;;;;;10.23;8.93;;;;;;;15.65;66.69;99427.56;1762943;81;21440;-72
2022/09/27 01:06:58;;;;;;;11.80;9.30;;;;;;;15.63;66.37;99416.88;1763602;81;21355;-72
2022/09/27 01:09:25;;;;;;;10.37;9.10;;;;;;;15.63;66.37;99416.88;1740496;79;21755;-72
2022/09/27 01:12:21;;;;;;;11.13;8.73;;;;;;;15.63;66.79;99419.04;1767258;81;21366;-74
2022/09/27 01:15:17;;;;;;;11.43;9.33;;;;;;;15.63;66.80;99417.69;1767239;81;21391;-73
2022/09/27 01:18:08;;;;;;;11.57;9.23;;;;;;;15.62;66.79;99406.67;1748093;79;21364;-74
2022/09/27 01:21:03;;;;;;;11.30;9.47;;;;;;;15.55;67.09;99406.36;1778970;79;21405;-71
2022/09/27 01:23:44;;;;;;;12.87;10.07;;;;;;;15.55;67.09;99406.36;1742375;81;21405;-73
2022/09/27 01:26:53;;;;;;;10.23;9.05;;;;;;;15.51;66.96;99403.30;1765783;81;21873;-73
2022/09/27 01:29:54;;;;;;;12.10;10.00;;;;;;;15.51;67.03;99400.05;1784584;79;21058;-73
2022/09/27 01:32:35;;;;;;;12.30;9.10;;;;;;;15.51;67.06;99389.28;1761365;79;21298;-73
2022/09/27 01:35:08;;;;;;;13.58;9.63;;;;;;;15.49;67.05;99384.75;1762291;81;21359;-72
2022/09/27 01:37:52;;;;;;;10.53;9.20;;;;;;;15.42;67.09;99376.37;1762435;79;22028;-72
2022/09/27 01:40:33;;;;;;;11.73;9.80;;;;;;;15.42;67.09;99376.37;1764554;79;21470;-72
2022/09/27 01:43:16;;;;;;;10.83;9.30;;;;;;;15.37;67.24;99373.86;1757487;79;21835;-72
2022/09/27 01:46:07;;;;;;;11.20;10.10;;;;;;;15.34;67.34;99367.77;1759458;80;21829;-71
2022/09/27 01:48:53;;;;;;;11.87;9.53;;;;;;;15.27;67.50;99375.50;1730846;82;21334;-73
2022/09/27 01:51:33;;;;;;;11.63;10.07;;;;;;;15.21;67.70;99368.16;1776398;80;21456;-73
2022/09/27 01:54:02;;;;;;;11.03;9.93;;;;;;;15.19;67.78;99373.84;1763160;79;21313;-72
2022/09/27 01:56:40;;;;;;;10.80;9.50;;;;;;;15.20;67.87;99367.91;1781449;80;21328;-73
2022/09/27 01:59:24;;;;;;;11.67;10.20;;;;;;;15.19;67.89;99374.41;1763677;79;21372;-74
2022/09/27 02:01:58;;;;;;;9.80;8.80;;;;;;;15.20;67.95;99372.76;1764223;79;21396;-73
2022/09/27 02:04:29;;;;;;;11.00;9.73;;;;;;;15.18;67.97;99381.69;1740520;79;21231;-73
2022/09/27 02:07:15;;;;;;;12.40;9.80;;;;;;;15.17;68.05;99376.64;1765123;79;21376;-73
2022/09/27 02:09:53;;;;;;;13.87;10.13;;;;;;;15.20;68.11;99365.22;1747586;79;21163;-75
2022/09/27 02:12:26;;;;;;;10.83;9.73;;;;;;;15.23;68.11;99367.28;1756401;79;21252;-74
2022/09/27 02:15:02;;;;;;;12.37;10.23;;;;;;;15.23;68.07;99367.28;1764151;79;21335;-73
2022/09/27 02:17:46;;;;;;;11.80;9.70;;;;;;;15.32;67.96;99371.32;1770670;79;21269;-75
2022/09/27 02:20:39;;;;;;;11.40;9.33;;;;;;;15.30;67.83;99366.80;1736519;82;21418;-74
2022/09/27 02:23:42;;;;;;;11.10;9.80;;;;;;;15.29;67.91;99357.16;1735916;81;21414;-72
2022/09/27 02:26:28;;;;;;;10.53;9.33;;;;;;;15.30;67.92;99355.51;1754834;79;21370;-73
2022/09/27 02:29:13;;;;;;;11.47;9.80;;;;;;;15.25;67.89;99359.13;1736147;82;21275;-73
2022/09/27 02:31:41;;;;;;;11.07;9.80;;;;;;;15.22;68.04;99367.05;1759086;80;21169;-74
2022/09/27 02:34:22;;;;;;;11.73;9.60;;;;;;;15.25;68.09;99363.17;1766018;79;21878;-71
2022/09/27 02:36:52;;;;;;;12.30;10.40;;;;;;;15.36;68.02;99351.52;1761800;79;21347;-73
2022/09/27 02:39:18;;;;;;;10.87;9.77;;;;;;;15.33;68.06;99342.74;1781267;79;21257;-73
2022/09/27 02:41:47;;;;;;;11.50;9.83;;;;;;;15.25;68.21;99340.30;1763915;79;21386;-74
2022/09/27 02:44:16;;;;;;;11.20;10.03;;;;;;;15.03;68.84;99335.08;1740495;81;21354;-73
2022/09/27 02:47:24;;;;;;;11.20;10.00;;;;;;;15.19;68.51;99342.12;1754995;81;21249;-72
2022/09/27 02:50:03;;;;;;;11.70;10.40;;;;;;;15.18;68.58;99337.86;1760350;79;21669;-73
2022/09/27 02:53:14;;;;;;;12.70;9.73;;;;;;;15.24;68.54;99333.35;1719383;81;21254;-74
2022/09/27 02:56:17;;;;;;;11.50;10.30;;;;;;;15.25;68.36;99334.14;1728461;79;21333;-73
2022/09/27 02:59:30;;;;;;;11.10;10.00;;;;;;;15.20;68.51;99330.25;1743541;80;21675;-73
2022/09/27 03:02:30;;;;;;;12.07;10.35;;;;;;;14.63;70.16;99328.48;1711954;82;21101;-74
2022/09/27 03:05:24;;;;;;;11.17;9.83;;;;;;;15.19;68.74;99322.74;1735353;81;21097;-74
2022/09/27 03:07:52;;;;;;;13.07;10.30;;;;;;;15.21;68.36;99318.41;1766756;79;21428;-73
2022/09/27 03:10:22;;;;;;;10.83;9.67;;;;;;;15.20;68.32;99304.70;1780841;80;22058;-73
2022/09/27 03:12:50;;;;;;;11.73;9.93;;;;;;;15.19;68.28;99306.60;1781822;79;21251;-74
2022/09/27 03:15:16;;;;;;;12.17;10.13;;;;;;;15.15;68.24;99298.16;1761411;79;21508;-72
2022/09/27 03:17:54;;;;;;;11.33;10.23;;;;;;;15.13;68.36;99294.42;1729787;79;21265;-72
2022/09/27 03:20:31;;;;;;;11.30;9.67;;;;;;;15.14;68.39;99290.64;1742410;80;21264;-74
2022/09/27 03:23:03;;;;;;;;;;;;;;;14.45;70.13;99284.66;1760342;79;21817;-73
2022/09/27 03:25:30;;;;;;;11.97;10.73;;;;;;;14.33;70.74;99293.86;1762650;79;21157;-73
2022/09/27 03:27:57;;;;;;;13.50;10.73;;;;;;;14.91;69.60;99290.58;1754999;81;21305;-73
2022/09/27 03:30:23;;;;;;;12.20;10.57;;;;;;;15.03;69.32;99300.13;1750446;81;21348;-73
2022/09/27 03:32:50;;;;;;;12.20;10.23;;;;;;;15.10;69.19;99297.74;1761219;81;21425;-73
2022/09/27 03:35:36;;;;;;;14.10;10.23;;;;;;;15.14;69.04;99301.95;1782789;80;21294;-72
2022/09/27 03:38:03;;;;;;;12.53;10.90;;;;;;;15.17;68.94;99304.80;1781953;79;21311;-73
2022/09/27 03:40:30;;;;;;;13.00;10.73;;;;;;;15.16;69.02;99307.80;1781907;79;21296;-73
2022/09/27 03:42:57;;;;;;;12.87;10.20;;;;;;;15.18;69.00;99302.34;1764180;79;21896;-72
2022/09/27 03:45:24;;;;;;;11.33;10.00;;;;;;;15.24;68.97;99299.73;1782583;80;21294;-73
2022/09/27 03:47:50;;;;;;;13.07;10.60;;;;;;;15.30;68.90;99299.55;1741402;81;21700;-73
2022/09/27 03:50:16;;;;;;;11.80;10.60;;;;;;;15.30;68.88;99299.55;1755045;81;21949;-72
2022/09/27 03:52:43;;;;;;;12.80;10.43;;;;;;;15.31;68.89;99304.62;1753216;81;21806;-72
2022/09/27 03:55:11;;;;;;;11.50;10.30;;;;;;;15.34;68.90;99302.64;1782259;79;21481;-72
2022/09/27 03:57:41;;;;;;;13.73;10.63;;;;;;;15.34;68.90;99302.64;1732838;81;21341;-74
2022/09/27 04:00:10;;;;;;;12.90;10.10;;;;;;;15.28;68.75;99295.05;1762563;81;21485;-72
2022/09/27 04:02:41;;;;;;;11.70;10.50;;;;;;;15.28;68.75;99295.05;1757317;80;21904;-74
2022/09/27 04:05:24;;;;;;;11.43;10.20;;;;;;;15.24;69.22;99294.34;1736885;82;21061;-72
2022/09/27 04:07:53;;;;;;;11.97;10.43;;;;;;;15.28;68.83;99291.80;1776915;80;21413;-71
2022/09/27 04:10:20;;;;;;;12.17;9.97;;;;;;;15.28;68.83;99291.80;1761982;79;21525;-72
2022/09/27 04:12:48;;;;;;;12.80;10.73;;;;;;;15.33;68.89;99285.45;1764367;79;21530;-74
2022/09/27 04:15:16;;;;;;;12.57;10.47;;;;;;;15.33;68.89;99285.45;1761058;79;21482;-74
2022/09/27 04:17:56;;;;;;;12.13;10.70;;;;;;;15.32;68.48;99277.95;1760907;79;21950;-73
2022/09/27 04:20:45;;;;;;;11.73;10.53;;;;;;;15.30;68.60;99279.37;1773129;80;21501;-72
2022/09/27 04:23:13;;;;;;;12.40;10.43;;;;;;;15.30;68.60;99279.37;1766270;79;21850;-71
2022/09/27 04:25:41;;;;;;;13.73;10.70;;;;;;;15.33;68.83;99278.73;1783923;80;21938;-71
2022/09/27 04:28:12;;;;;;;13.32;10.28;;;;;;;15.33;68.78;99282.20;1784710;80;21891;-72
2022/09/27 04:30:40;;;;;;;11.97;10.70;;;;;;;15.34;68.80;99274.95;1786341;79;20912;-73
2022/09/27 04:33:13;;;;;;;12.53;10.13;;;;;;;15.38;68.79;99272.64;1783126;80;21396;-72
2022/09/27 04:38:46;;;;;;;15.17;10.70;;;;;;;15.44;68.83;99272.70;1776331;79;21899;-72
2022/09/27 04:41:14;;;;;;;10.83;9.70;;;;;;;15.50;68.73;99270.64;1781513;80;21489;-73
2022/09/27 04:43:41;;;;;;;11.77;10.57;;;;;;;15.52;68.65;99269.75;1779981;80;21463;-73
2022/09/27 04:46:08;;;;;;;12.00;10.67;;;;;;;15.55;68.62;99272.36;1784813;80;21807;-73
2022/09/27 04:48:36;;;;;;;12.90;10.70;;;;;;;15.63;68.74;99273.69;1780097;80;21914;-72
2022/09/27 04:51:03;;;;;;;13.03;10.77;;;;;;;15.62;68.20;99265.92;1782820;79;21855;-73
2022/09/27 04:53:30;;;;;;;13.60;10.70;;;;;;;15.64;68.84;99266.40;1781523;80;21393;-74
2022/09/27 04:55:58;;;;;;;12.37;11.07;;;;;;;15.66;68.19;99267.70;1782570;79;21436;-73
2022/09/27 04:58:25;;;;;;;12.00;10.80;;;;;;;15.66;68.19;99267.70;1779999;79;21703;-73
2022/09/27 05:00:54;;;;;;;13.00;10.80;;;;;;;15.78;68.05;99258.14;1782665;79;21468;-73
2022/09/27 05:03:22;;;;;;;11.77;10.40;;;;;;;15.83;68.17;99247.99;1768097;80;21496;-74
2022/09/27 05:05:53;;;;;;;16.07;11.77;;;;;;;15.83;68.17;99247.99;1754505;81;21854;-74
2022/09/27 05:08:19;;;;;;;13.63;11.03;;;;;;;15.92;68.07;99247.93;1757828;79;21510;-71
2022/09/27 05:10:48;;;;;;;13.83;11.27;;;;;;;15.92;68.07;99247.93;1767237;80;21500;-72
2022/09/27 05:13:17;;;;;;;13.17;10.93;;;;;;;15.85;67.63;99242.27;1782892;79;21681;-72
2022/09/27 05:15:44;;;;;;;11.43;10.23;;;;;;;15.85;67.63;99242.27;1769194;80;21608;-73
2022/09/27 05:18:13;;;;;;;13.10;11.70;;;;;;;15.84;67.80;99239.35;1744828;81;22063;-73
2022/09/27 05:21:00;;;;;;;13.57;11.47;;;;;;;15.77;67.62;99239.08;1691893;83;21592;-73
2022/09/27 05:23:29;;;;;;;13.43;12.03;;;;;;;15.82;68.22;99236.97;1702096;83;21756;-73
2022/09/27 05:25:56;;;;;;;12.83;11.53;;;;;;;15.82;68.22;99236.97;1707363;81;21554;-73
2022/09/27 05:28:25;;;;;;;13.27;11.87;;;;;;;15.89;67.65;99237.81;1782519;79;21425;-73
2022/09/27 05:30:52;;;;;;;12.87;11.00;;;;;;;15.94;67.79;99237.64;1767650;79;21786;-73
2022/09/27 05:33:20;;;;;;;13.03;11.63;;;;;;;15.88;67.74;99228.95;1767600;81;21644;-73
2022/09/27 05:35:56;;;;;;;13.43;12.13;;;;;;;15.84;68.09;99236.66;1784941;80;21699;-73
2022/09/27 05:38:25;;;;;;;14.30;11.83;;;;;;;15.86;68.48;99235.23;1761363;79;21785;-74
2022/09/27 05:40:53;;;;;;;12.67;10.80;;;;;;;15.86;68.48;99235.23;1782311;80;21668;-74
2022/09/27 05:43:20;;;;;;;13.30;11.20;;;;;;;15.90;68.15;99240.19;1737833;79;21730;-72
2022/09/27 05:45:48;;;;;;;11.87;10.67;;;;;;;15.94;68.21;99238.98;1783925;80;21730;-73
2022/09/27 05:48:16;;;;;;;12.37;10.77;;;;;;;15.97;68.32;99247.77;1767331;81;21709;-73
2022/09/27 05:50:45;;;;;;;12.00;10.70;;;;;;;15.98;68.27;99255.28;1781369;80;21655;-74
2022/09/27 05:53:12;;;;;;;12.10;10.87;;;;;;;16.03;68.29;99255.89;1763774;79;21734;-73
2022/09/27 05:55:39;;;;;;;13.10;11.33;;;;;;;16.04;68.16;99252.08;1782556;80;21587;-73
2022/09/27 05:58:07;;;;;;;12.23;10.93;;;;;;;16.09;68.08;99248.40;1764345;79;21687;-74
2022/09/27 06:00:38;;;;;;;13.03;10.87;;;;;;;16.12;68.00;99239.67;1760623;79;21726;-73
2022/09/27 06:03:07;;;;;;;11.27;10.00;;;;;;;16.11;67.65;99233.50;1763647;81;22285;-72
2022/09/27 06:05:48;;;;;;;13.27;11.00;;;;;;;16.10;68.08;99241.36;1722291;80;21661;-74
2022/09/27 06:08:26;;;;;;;14.03;11.20;;;;;;;16.09;68.22;99245.70;1762863;79;22170;-73
2022/09/27 06:10:58;;;;;;;14.33;11.23;;;;;;;16.10;68.25;99235.97;1764282;79;21750;-74
2022/09/27 06:13:25;;;;;;;15.10;11.40;;;;;;;16.17;68.30;99239.49;1779227;80;21653;-73
2022/09/27 06:15:53;;;;;;;20.07;11.43;;;;;;;16.24;68.34;99246.50;1766852;81;21758;-72
2022/09/27 06:18:21;;;;;;;14.30;11.00;;;;;;;16.30;68.30;99241.72;1767343;81;21746;-72
2022/09/27 06:20:49;;;;;;;14.73;11.40;;;;;;;16.38;68.38;99238.16;1767230;80;21710;-72
2022/09/27 06:23:19;;;;;;;15.47;11.43;;;;;;;16.44;68.32;99240.89;1736772;82;21709;-72
2022/09/27 06:25:49;;;;;;;15.60;11.55;;;;;;;16.48;68.25;99243.16;1755737;81;21604;-73
2022/09/27 06:28:25;;;;;;;23.87;13.40;;;;;;;16.53;68.23;99246.23;1735727;82;21122;-73
2022/09/27 06:30:59;;;;;;;15.87;11.73;;;;;;;16.59;68.19;99254.36;1754792;81;22156;-73
2022/09/27 06:33:29;;;;;;;17.03;12.70;;;;;;;16.63;67.97;99250.67;1742217;81;21759;-72
2022/09/27 06:36:04;;;;;;;19.53;12.37;;;;;;;16.73;67.72;99238.70;1781701;80;22206;-72
2022/09/27 06:38:31;;;;;;;16.30;11.80;;;;;;;16.73;67.72;99238.70;1778681;80;21522;-72
2022/09/27 06:41:09;;;;;;;16.80;11.73;;;;;;;16.77;67.49;99244.25;1741296;80;21705;-72
2022/09/27 06:43:38;;;;;;;17.23;12.23;;;;;;;16.78;67.42;99245.28;1761479;79;21683;-72
2022/09/27 06:46:15;;;;;;;16.13;12.00;;;;;;;16.84;67.41;99247.20;1781750;80;21110;-73
2022/09/27 06:48:59;;;;;;;16.50;11.03;;;;;;;16.82;67.26;99240.02;1780317;80;21654;-72
2022/09/27 06:51:26;;;;;;;16.50;11.50;;;;;;;16.73;67.24;99233.31;1765471;79;21113;-72
2022/09/27 06:53:53;;;;;;;16.00;12.23;;;;;;;16.62;67.48;99227.53;1781947;80;21616;-71
2022/09/27 06:56:20;;;;;;;15.23;12.20;;;;;;;16.51;67.74;99224.98;1757712;79;21768;-71
2022/09/27 07:01:37;;;;;;;18.77;12.23;;;;;;;16.60;68.22;99233.02;1704668;79;21841;-71
2022/09/27 07:04:15;;;;;;;17.77;11.70;;;;;;;16.60;68.22;99233.02;1760205;80;20915;-70
2022/09/27 07:07:02;;;;;;;22.50;12.97;;;;;;;16.66;68.44;99235.75;1736584;82;21702;-71
2022/09/27 07:09:31;;;;;;;20.40;12.97;;;;;;;16.68;68.39;99240.23;1757222;80;20927;-71
2022/09/27 07:11:59;;;;;;;16.00;12.37;;;;;;;16.69;68.45;99240.48;1762773;79;21674;-75
2022/09/27 07:14:26;;;;;;;19.30;13.23;;;;;;;16.79;68.49;99236.63;1763939;79;21017;-73
2022/09/27 07:16:56;;;;;;;18.43;12.77;;;;;;;16.79;68.49;99236.63;1779436;79;20980;-74
2022/09/27 07:19:25;;;;;;;17.17;12.40;;;;;;;16.86;68.56;99233.62;1765417;79;20986;-72
2022/09/27 07:21:52;;;;;;;16.93;12.33;;;;;;;16.94;68.55;99220.38;1764738;79;21793;-71
2022/09/27 07:24:19;;;;;;;19.17;12.40;;;;;;;16.99;68.51;99220.19;1765127;79;21130;-72
2022/09/27 07:26:47;;;;;;;16.80;13.37;;;;;;;16.94;68.52;99223.86;1780705;79;21085;-73
2022/09/27 07:29:15;;;;;;;15.47;12.20;;;;;;;16.97;68.83;99220.50;1762394;79;21104;-72
2022/09/27 07:31:42;;;;;;;17.53;12.53;;;;;;;17.06;68.70;99217.73;1781249;80;21014;-72
2022/09/27 07:34:10;;;;;;;18.40;12.63;;;;;;;17.04;68.71;99214.00;1764975;81;21050;-72
2022/09/27 07:36:37;;;;;;;16.97;12.70;;;;;;;17.03;68.79;99211.66;1778865;79;21617;-72
2022/09/27 07:39:04;;;;;;;17.60;13.20;;;;;;;17.06;68.93;99217.17;1781234;79;21035;-74
2022/09/27 07:41:32;;;;;;;15.70;11.77;;;;;;;17.14;68.97;99219.54;1766061;79;21505;-73
2022/09/27 07:43:59;;;;;;;15.77;12.40;;;;;;;17.15;68.95;99224.41;1781559;80;21018;-72
2022/09/27 07:46:26;;;;;;;18.13;12.30;;;;;;;17.17;68.91;99223.49;1763115;79;21786;-74
2022/09/27 07:48:55;;;;;;;16.63;12.73;;;;;;;17.17;68.82;99222.92;1720744;79;21142;-72
2022/09/27 07:51:40;;;;;;;16.97;12.77;;;;;;;17.14;68.77;99224.16;1783439;80;20956;-72
2022/09/27 07:54:26;;;;;;;19.27;13.00;;;;;;;17.18;68.90;99215.08;1764737;81;21101;-71
2022/09/27 07:57:06;;;;;;;18.47;13.07;;;;;;;17.29;68.82;99216.78;1780720;79;21014;-71
2022/09/27 07:59:34;;;;;;;17.90;12.50;;;;;;;17.34;68.60;99221.95;1763274;79;21015;-72
2022/09/27 08:02:04;;;;;;;19.10;13.53;;;;;;;17.40;68.49;99218.48;1782682;79;21236;-72
2022/09/27 08:04:31;;;;;;;18.40;13.83;;;;;;;17.42;68.46;99217.03;1746452;81;21007;-73
2022/09/27 08:06:58;;;;;;;16.73;13.23;;;;;;;17.47;68.46;99218.72;1769448;80;21038;-71
2022/09/27 08:09:25;;;;;;;16.37;13.07;;;;;;;17.49;68.26;99215.91;1764530;79;21054;-72
2022/09/27 08:11:56;;;;;;;19.70;14.03;;;;;;;17.39;68.23;99216.35;1779256;80;21053;-73
2022/09/27 08:14:23;;;;;;;19.75;14.87;;;;;;;17.30;68.34;99211.04;1715492;79;21223;-72
2022/09/27 08:16:50;;;;;;;17.17;14.17;;;;;;;17.32;68.55;99212.07;1764099;79;21050;-72
2022/09/27 08:19:19;;;;;;;21.03;14.53;;;;;;;17.40;68.66;99210.39;1763978;81;21109;-72
2022/09/27 08:22:04;;;;;;;18.63;13.67;;;;;;;17.46;68.66;99220.62;1784860;80;21003;-71
2022/09/27 08:24:32;;;;;;;21.57;14.73;;;;;;;17.53;68.63;99216.03;1760949;79;21083;-71
2022/09/27 08:27:07;;;;;;;22.23;15.30;;;;;;;17.56;68.58;99214.01;1762643;79;21078;-71
2022/09/27 08:29:51;;;;;;;19.47;15.53;;;;;;;17.57;68.51;99216.39;1763242;79;21268;-72
2022/09/27 08:32:18;;;;;;;30.83;19.57;;;;;;;17.59;68.51;99209.29;1754893;79;21048;-72
2022/09/27 08:34:44;;;;;;;22.10;15.97;;;;;;;17.61;68.48;99206.27;1770300;80;21010;-72
2022/09/27 08:37:11;;;;;;;22.00;14.60;;;;;;;17.59;68.53;99197.92;1763645;79;21073;-71
2022/09/27 08:39:39;;;;;;;21.50;15.30;;;;;;;17.57;68.60;99198.84;1783629;79;21100;-72
2022/09/27 08:42:38;;;;;;;21.50;14.97;;;;;;;17.53;68.73;99197.91;1764221;79;21093;-71
2022/09/27 08:45:21;;;;;;;23.50;16.80;;;;;;;17.57;68.88;99201.54;1777974;80;21015;-72
2022/09/27 08:47:57;;;;;;;22.67;17.27;;;;;;;17.65;68.97;99203.11;1740839;79;20998;-73
2022/09/27 08:50:28;;;;;;;21.67;16.57;;;;;;;17.64;68.93;99193.45;1753790;81;21053;-73
2022/09/27 08:53:15;;;;;;;21.67;16.17;;;;;;;17.65;69.05;99189.05;1735698;82;21126;-71
2022/09/27 08:55:46;;;;;;;28.37;19.10;;;;;;;17.69;69.07;99191.29;1754321;81;20958;-71
2022/09/27 08:58:30;;;;;;;20.03;15.33;;;;;;;17.76;69.12;99179.92;1737159;82;21006;-73
2022/09/27 09:01:08;;;;;;;20.77;16.10;;;;;;;17.84;69.16;99180.98;1755014;81;20978;-72
2022/09/27 09:03:42;;;;;;;19.43;14.80;;;;;;;17.93;69.18;99178.92;1736251;82;21112;-72
2022/09/27 09:06:28;;;;;;;21.52;15.70;;;;;;;18.02;69.21;99182.30;1736640;82;21978;-72
2022/09/27 09:09:16;;;;;;;22.23;16.50;;;;;;;18.12;69.16;99172.94;1785770;80;21559;-72
2022/09/27 09:15:52;;;;;;;19.80;15.33;;;;;;;18.25;68.73;99171.78;1767555;81;21521;-73
2022/09/27 09:18:19;;;;;;;21.73;15.70;;;;;;;18.25;68.68;99163.67;1786774;80;20971;-71
2022/09/27 09:20:59;;;;;;;21.67;16.30;;;;;;;18.31;68.72;99167.72;1739831;81;21235;-72
2022/09/27 09:23:37;;;;;;;20.63;16.57;;;;;;;18.40;68.72;99168.38;1786043;80;21023;-71
2022/09/27 09:26:31;;;;;;;25.10;16.70;;;;;;;18.51;68.61;99161.34;1767786;81;21022;-71
2022/09/27 09:29:37;;;;;;;19.13;14.73;;;;;;;18.63;68.41;99167.84;1767916;81;21054;-72
2022/09/27 09:32:39;;;;;;;19.60;16.00;;;;;;;18.61;67.71;99179.56;1767686;81;21588;-71
2022/09/27 09:35:10;;;;;;;20.50;16.23;;;;;;;18.49;67.61;99185.25;1767379;81;21248;-72
2022/09/27 09:37:42;;;;;;;20.47;16.47;;;;;;;18.42;67.70;99184.23;1786029;80;20995;-72
2022/09/27 09:40:29;;;;;;;22.90;16.70;;;;;;;18.38;67.83;99193.59;1767217;81;21061;-71
2022/09/27 09:43:20;;;;;;;23.90;17.07;;;;;;;18.33;68.01;99187.09;1786253;80;21521;-72
2022/09/27 09:45:56;;;;;;;21.97;16.87;;;;;;;18.31;68.13;99187.98;1767384;81;21038;-72
2022/09/27 09:48:35;;;;;;;21.30;16.73;;;;;;;18.26;68.29;99191.73;1767934;81;20978;-70
2022/09/27 09:51:04;;;;;;;25.27;17.83;;;;;;;18.25;68.39;99194.75;1785742;80;20963;-72
2022/09/27 09:53:43;;;;;;;23.50;17.47;;;;;;;18.27;68.46;99196.00;1732953;82;21141;-70
2022/09/27 09:56:21;;;;;;;23.83;18.13;;;;;;;18.29;68.42;99192.94;1779981;80;20970;-72
2022/09/27 09:59:03;;;;;;;23.23;17.30;;;;;;;18.34;68.39;99182.47;1742708;81;21260;-71
2022/09/27 10:01:43;;;;;;;27.03;17.73;;;;;;;18.41;68.29;99169.94;1766726;81;21254;-72
2022/09/27 10:04:24;;;;;;;24.57;17.63;;;;;;;18.47;68.11;99173.98;1785125;80;21018;-72
2022/09/27 10:06:52;;;;;;;24.33;19.00;;;;;;;18.53;68.03;99178.58;1740868;81;21069;-72
2022/09/27 10:09:24;;;;;;;23.87;18.63;;;;;;;18.51;67.87;99176.21;1782983;80;20995;-69
2022/09/27 10:12:00;;;;;;;25.80;19.17;;;;;;;18.51;67.87;99174.86;1726592;82;21529;-72
2022/09/27 10:14:29;;;;;;;21.50;19.20;;;;;;;18.59;67.97;99166.94;1783128;79;22127;-71
2022/09/27 10:17:01;;;;;;;22.07;18.87;;;;;;;18.26;68.96;99167.41;1782900;79;21101;-70
2022/09/27 10:19:30;;;;;;;22.33;18.97;;;;;;;18.14;69.79;99163.37;1781538;80;21034;-71
2022/09/27 10:22:17;;;;;;;20.07;17.77;;;;;;;18.20;69.97;99166.06;1776286;80;20981;-72
2022/09/27 10:25:02;;;;;;;21.50;18.33;;;;;;;18.27;69.81;99165.48;1783143;79;20955;-72
2022/09/27 10:27:48;;;;;;;23.23;18.60;;;;;;;18.28;69.65;99154.89;1779849;80;21144;-71
2022/09/27 10:30:34;;;;;;;20.07;17.97;;;;;;;18.33;69.65;99170.87;1780942;79;21089;-71
2022/09/27 10:33:17;;;;;;;20.45;17.10;;;;;;;18.76;68.53;99174.02;1782105;80;21571;-70
2022/09/27 10:35:50;;;;;;;22.37;19.60;;;;;;;18.79;67.49;99167.89;1776920;80;21433;-71
2022/09/27 10:38:26;;;;;;;22.10;17.83;;;;;;;18.71;67.53;99168.25;1753425;79;21636;-71
2022/09/27 10:41:35;;;;;;;22.83;19.73;;;;;;;18.66;67.57;99173.92;1778920;79;21194;-72
2022/09/27 10:44:21;;;;;;;22.30;19.37;;;;;;;18.67;67.76;99161.39;1779191;80;28695;-72
2022/09/27 10:46:54;;;;;;;23.30;19.30;;;;;;;18.69;67.93;99163.20;1764138;79;21572;-71
2022/09/27 10:49:36;;;;;;;24.33;19.60;;;;;;;18.78;67.97;99157.64;1777735;79;20970;-71
2022/09/27 10:52:18;;;;;;;23.87;19.47;;;;;;;18.80;67.96;99160.80;1782356;80;21508;-71
2022/09/27 10:55:13;;;;;;;22.97;18.80;;;;;;;18.80;67.95;99165.43;1767702;81;21213;-72
2022/09/27 10:57:48;;;;;;;22.20;17.47;;;;;;;18.79;67.96;99159.23;1742305;80;20994;-72
2022/09/27 11:00:26;;;;;;;20.27;17.50;;;;;;;18.81;67.97;99150.77;1768980;79;21037;-71
2022/09/27 11:02:56;;;;;;;20.77;18.43;;;;;;;18.87;67.88;99148.03;1784878;80;21061;-72
2022/09/27 11:05:32;;;;;;;19.93;17.90;;;;;;;18.95;67.83;99145.72;1766360;79;21557;-70
2022/09/27 11:08:05;;;;;;;21.10;18.23;;;;;;;19.06;67.66;99133.27;1783350;80;21481;-71
2022/09/27 11:10:36;;;;;;;20.90;17.87;;;;;;;19.13;67.29;99134.80;1753208;81;21583;-72
2022/09/27 11:13:14;;;;;;;20.87;17.83;;;;;;;19.14;66.95;99139.63;1767072;80;21484;-71
2022/09/27 11:16:27;;;;;;;18.90;16.97;;;;;;;19.14;66.83;99118.77;1736826;82;21074;-72
2022/09/27 11:19:45;;;;;;;20.15;17.80;;;;;;;19.22;66.62;99110.27;1674928;85;21538;-72
2022/09/27 11:22:40;;;;;;;21.73;18.20;;;;;;;19.25;66.46;99110.12;1675090;85;21127;-72
2022/09/27 11:25:30;;;;;;;19.73;17.70;;;;;;;19.31;66.43;99114.91;1756571;81;21038;-72
2022/09/27 11:28:21;;;;;;;20.93;18.73;;;;;;;19.37;66.32;99112.73;1780120;80;21593;-72
2022/09/27 11:31:13;;;;;;;20.77;17.97;;;;;;;19.40;66.25;99115.52;1767531;81;21089;-72
2022/09/27 11:34:16;;;;;;;19.83;16.63;;;;;;;19.47;66.20;99110.84;1763186;79;21132;-72
2022/09/27 11:37:20;;;;;;;20.57;17.20;;;;;;;19.55;66.04;99111.23;1758785;79;21260;-71
2022/09/27 11:40:06;;;;;;;18.73;16.77;;;;;;;19.60;65.77;99106.89;1738438;79;21504;-72
2022/09/27 11:42:57;;;;;;;19.57;17.37;;;;;;;19.72;65.68;99104.68;1736906;82;21458;-72
2022/09/27 11:45:43;;;;;;;19.82;16.95;;;;;;;19.88;65.47;99108.13;1761012;79;21089;-73
2022/09/27 11:48:43;;;;;;;18.10;16.30;;;;;;;20.02;64.99;99106.87;1767426;81;20959;-73
2022/09/27 11:51:27;;;;;;;16.87;14.43;;;;;;;20.19;64.85;99102.37;1760076;80;21567;-71
2022/09/27 11:54:20;;;;;;;15.47;13.50;;;;;;;20.36;64.29;99106.58;1782506;79;20967;-73
2022/09/27 11:57:05;;;;;;;17.53;15.50;;;;;;;20.39;63.27;99108.00;1739841;79;21065;-73
2022/09/27 12:00:10;;;;;;;16.67;14.73;;;;;;;20.41;63.13;99097.39;1780916;80;20978;-74
2022/09/27 12:02:59;;;;;;;16.10;14.40;;;;;;;20.53;63.07;99103.48;1763299;79;21018;-73
2022/09/27 12:05:35;;;;;;;;;;;;;;;20.81;62.96;99112.69;1762595;79;21162;-73
2022/09/27 12:08:29;;;;;;;17.97;16.07;;;;;;;20.89;61.57;99116.88;1759919;79;20126;-73
2022/09/27 12:11:05;;;;;;;;;;;;;;;20.77;61.45;99113.78;1782446;79;21073;-72